Terminal Aerodrome Forecast
Issued by NWS Grand Forks, ND

Home | Current Version | Previous Version | Text Only | Print | Product List | Glossary Off
Versions: 1 2 3 4 5 6 7 8 9 10 11 12 13 14 15

633
FTUS43 KFGF 222330
TAFFAR
TAF
KFAR 222330Z 2300/2324 30015G22KT P6SM FEW200
     FM230300 27014G19KT P6SM FEW200
     FM230800 30014KT P6SM SCT120
     FM230900 30015KT P6SM BKN100
     FM231300 31018G23KT P6SM BKN030
     FM231700 31019G27KT P6SM BKN040=

USA.gov is the U.S. government's official web portal to all federal, state and local government web resources and services.